首页
METAR-TAF:

METAR-TAF

机场 :

基韋斯特, 佛罗里达州, 美国

纬度: 24-34-46N, 经度: 081-41-02W, 海拔: 1米

当前天气观测

该预报发布于53分钟前的16:53 UTC
风速13节,风向西
温度 28°C
湿度 66%
气压 1016 hPa
能見度: 16.1公里
天空无云

METAR: KNQX 031653Z 27013KT 10SM CLR 28/21 A3001 RMK AO2 SLP161 T02780211 $

时间: 12:46 (17:46 UTC)

预报

预报有效从03日的 15点(UTC)到 04日的 15点(UTC)
风速10节,风向西转西南
能见度10公里或以上
少量云层高于3000英尺
成为
从 03日的 22点(UTC)到 04日的 00点(UTC)
风速14节,风向北转西北
能见度10公里或以上
散云层高于2500英尺
多云层高于5000英尺

TAF: KNQX 0315/0415 24010KT 9999 FEW030 QNH2990INS BECMG 0322/0400 34014KT 9999 SCT025 BKN050 QNH2992INS T27/0319Z T20/0414Z FN20027

超过4000个机场的气象观测和天气预报(METAR&TAF报告)。

可查询的气象台以黄色和红色小点在地图上表示。

将鼠标移到小点上方,可查看气象台名称。

然后点击查看天气观测和预报。

如需切换地图:点击带黑十字的绿色按钮放大地图;点击带横线的绿色按钮缩小地图;或者点击绿色箭头查看邻近地区的地图。


METAR-TAF: